Time;durP1;ratioP1;P1;durP2;ratioP2;P2;SDS_P1;SDS_P2;PMS_P1;PMS_P2;Temp;Humidity;BMP_temperature;BMP_pressure;BME280_temperature;BME280_humidity;BME280_pressure;Samples;Min_cycle;Max_cycle;Signal;HPM_P1;HPM_P2
2023/12/04 00:01:29;;;;;;;207.90;112.53;;;-3.20;99.90;;;;;;4978591;28;20053;-79
2023/12/04 00:03:56;;;;;;;222.93;113.28;;;-3.20;99.90;;;;;;4962494;28;20074;-77
2023/12/04 00:06:24;;;;;;;227.82;116.65;;;-3.20;99.90;;;;;;4978768;28;20066;-78
2023/12/04 00:08:52;;;;;;;205.57;105.72;;;-3.30;99.90;;;;;;4977895;28;20051;-78
2023/12/04 00:11:19;;;;;;;211.95;114.65;;;-3.40;99.90;;;;;;4973629;28;20126;-75
2023/12/04 00:13:47;;;;;;;209.30;113.30;;;-3.50;99.90;;;;;;4971007;28;20050;-75
2023/12/04 00:16:16;;;;;;;192.27;104.22;;;-3.60;1.00;;;;;;4972280;28;20094;-79
2023/12/04 00:18:43;;;;;;;188.57;102.00;;;-3.50;1.00;;;;;;4972201;28;20038;-78
2023/12/04 00:21:11;;;;;;;176.88;92.78;;;-3.50;1.00;;;;;;4972575;28;20057;-78
2023/12/04 00:23:38;;;;;;;172.38;92.88;;;-3.40;1.00;;;;;;4971695;28;20543;-77
2023/12/04 00:26:07;;;;;;;157.13;84.50;;;-3.50;1.00;;;;;;4972275;28;20557;-76
2023/12/04 00:28:37;;;;;;;146.82;79.63;;;-3.40;1.00;;;;;;4972937;28;20039;-78
2023/12/04 00:31:06;;;;;;;140.55;77.10;;;-3.40;1.00;;;;;;4972467;28;20046;-76
2023/12/04 00:33:35;;;;;;;118.22;66.00;;;-3.40;1.00;;;;;;4972086;28;20043;-76
2023/12/04 00:36:02;;;;;;;133.85;76.95;;;-3.30;1.00;;;;;;4954988;28;20047;-77
2023/12/04 00:38:30;;;;;;;120.75;68.00;;;-3.30;1.00;;;;;;4972245;28;20054;-76
2023/12/04 00:40:58;;;;;;;100.53;57.33;;;-3.40;99.90;;;;;;4954723;28;20047;-76
2023/12/04 00:43:25;;;;;;;120.55;66.70;;;-3.40;99.90;;;;;;4972997;28;20039;-77
2023/12/04 00:45:52;;;;;;;138.05;74.95;;;-3.40;99.90;;;;;;4973980;28;20159;-76
2023/12/04 00:48:20;;;;;;;134.45;73.93;;;-3.40;99.90;;;;;;4974612;28;20125;-77
2023/12/04 00:50:49;;;;;;;145.73;75.35;;;-3.50;95.30;;;;;;4993982;28;20051;-77
2023/12/04 00:53:17;;;;;;;148.45;80.15;;;-3.60;99.90;;;;;;4994429;28;20026;-77
2023/12/04 00:55:44;;;;;;;150.82;77.82;;;-3.60;99.90;;;;;;4994621;28;20058;-78
2023/12/04 00:58:12;;;;;;;145.38;81.10;;;-3.60;99.90;;;;;;4993748;28;20289;-78
2023/12/04 01:00:40;;;;;;;135.68;74.85;;;-3.60;99.90;;;;;;4992830;28;20039;-78
2023/12/04 01:03:07;;;;;;;138.70;72.35;;;-3.70;1.00;;;;;;4991754;28;20039;-79
2023/12/04 01:05:35;;;;;;;142.05;77.30;;;-3.60;1.00;;;;;;4973871;28;20110;-77
2023/12/04 01:08:05;;;;;;;136.82;74.53;;;-3.70;99.90;;;;;;4972591;28;20065;-75
2023/12/04 01:10:32;;;;;;;117.80;65.60;;;-3.60;1.00;;;;;;4971614;28;20048;-77
2023/12/04 01:13:00;;;;;;;106.57;59.58;;;-3.60;1.00;;;;;;4971854;28;20503;-77
2023/12/04 01:15:30;;;;;;;109.80;58.35;;;-3.70;99.90;;;;;;4971597;28;20049;-78
2023/12/04 01:18:00;;;;;;;90.40;50.75;;;-3.60;99.90;;;;;;4954695;28;20038;-78
2023/12/04 01:20:29;;;;;;;89.07;48.67;;;-3.70;99.90;;;;;;4973859;28;20433;-78
2023/12/04 01:22:57;;;;;;;103.07;55.88;;;-3.70;99.90;;;;;;4973420;28;20166;-76
2023/12/04 01:25:26;;;;;;;92.60;50.88;;;-3.70;99.90;;;;;;4973886;28;20039;-77
2023/12/04 01:27:54;;;;;;;89.18;49.70;;;-3.70;99.90;;;;;;4972442;28;20054;-77
2023/12/04 01:30:22;;;;;;;87.15;48.63;;;-3.70;99.90;;;;;;4972324;28;20130;-77
2023/12/04 01:32:49;;;;;;;93.95;53.50;;;-3.70;99.90;;;;;;4971391;28;20049;-79
2023/12/04 01:35:17;;;;;;;87.57;49.78;;;-3.70;99.90;;;;;;4972492;28;20529;-78
2023/12/04 01:37:45;;;;;;;100.90;54.75;;;-3.80;99.90;;;;;;4972094;28;20061;-76
2023/12/04 01:40:13;;;;;;;101.95;55.83;;;-3.80;99.90;;;;;;4970372;28;20039;-78
2023/12/04 01:42:43;;;;;;;103.47;55.85;;;-3.80;99.90;;;;;;4970852;28;20071;-79
2023/12/04 01:45:11;;;;;;;104.28;57.25;;;-3.90;99.90;;;;;;4969818;28;20035;-77
2023/12/04 01:47:39;;;;;;;104.00;57.85;;;-3.80;99.90;;;;;;4953619;28;20110;-78
2023/12/04 01:50:09;;;;;;;104.05;54.63;;;-3.90;99.90;;;;;;4970985;28;20102;-78
2023/12/04 01:52:37;;;;;;;99.78;55.42;;;-4.10;99.90;;;;;;4970300;28;20066;-78
2023/12/04 01:55:07;;;;;;;88.13;49.97;;;-4.10;1.00;;;;;;4970181;28;20122;-76
2023/12/04 01:57:36;;;;;;;85.50;50.30;;;-4.10;1.00;;;;;;4970003;28;20129;-76
2023/12/04 02:00:11;;;;;;;81.43;47.25;;;-4.10;1.00;;;;;;4952935;28;20491;-77
2023/12/04 02:02:38;;;;;;;;;;;-4.00;1.00;;;;;;4970691;28;20078;-77
2023/12/04 02:05:08;;;;;;;74.93;44.28;;;-4.00;99.90;;;;;;4969077;28;20499;-77
2023/12/04 02:07:36;;;;;;;77.97;44.00;;;-4.10;99.90;;;;;;4969833;28;20498;-76
2023/12/04 02:10:04;;;;;;;76.75;41.65;;;-4.10;99.90;;;;;;4969624;28;20054;-79
2023/12/04 02:12:32;;;;;;;81.10;44.38;;;-4.20;99.90;;;;;;4970500;28;20042;-77
2023/12/04 02:15:00;;;;;;;84.25;45.70;;;-4.20;99.90;;;;;;4969928;28;20541;-78
2023/12/04 02:17:30;;;;;;;80.90;45.28;;;-4.20;1.00;;;;;;4969771;28;20121;-76
2023/12/04 02:19:58;;;;;;;83.63;47.30;;;-4.20;1.00;;;;;;4969944;28;20049;-78
2023/12/04 02:22:25;;;;;;;80.60;46.40;;;-4.10;99.90;;;;;;4969706;28;20039;-78
2023/12/04 02:24:58;;;;;;;87.43;49.05;;;-4.20;99.90;;;;;;4970544;28;20086;-77
2023/12/04 02:27:30;;;;;;;93.95;52.58;;;-4.10;99.90;;;;;;4969258;28;20053;-76
2023/12/04 02:30:00;;;;;;;101.82;54.53;;;-4.20;99.90;;;;;;4969412;28;20057;-76
2023/12/04 02:32:30;;;;;;;116.40;62.85;;;-4.20;99.90;;;;;;4970487;28;20093;-79
2023/12/04 02:34:59;;;;;;;102.30;54.67;;;-4.30;99.90;;;;;;4968897;28;20043;-77
2023/12/04 02:37:27;;;;;;;94.75;53.75;;;-4.30;99.90;;;;;;4969845;28;20046;-78
2023/12/04 02:39:57;;;;;;;95.90;55.40;;;-4.40;1.00;;;;;;4969696;28;20034;-77
2023/12/04 02:42:25;;;;;;;91.43;52.70;;;-4.30;1.00;;;;;;4970305;28;20122;-78
2023/12/04 02:44:53;;;;;;;94.57;53.35;;;-4.30;1.00;;;;;;4969262;28;20053;-76
2023/12/04 02:47:20;;;;;;;102.07;57.58;;;-4.30;1.00;;;;;;4970011;28;20046;-76
2023/12/04 02:49:48;;;;;;;92.93;53.53;;;-4.30;1.00;;;;;;4951927;28;20043;-78
2023/12/04 02:52:15;;;;;;;94.80;52.55;;;-4.30;99.90;;;;;;4952787;28;20055;-77
2023/12/04 02:54:43;;;;;;;88.38;50.75;;;-4.40;99.90;;;;;;4966679;28;20045;-74
2023/12/04 02:57:12;;;;;;;92.47;51.95;;;-4.40;99.90;;;;;;4968646;28;20043;-78
2023/12/04 02:59:39;;;;;;;92.70;51.88;;;-4.50;1.00;;;;;;4969033;28;20074;-78
2023/12/04 03:02:07;;;;;;;86.30;48.90;;;-4.50;1.00;;;;;;4969477;28;20047;-78
2023/12/04 03:04:36;;;;;;;80.82;45.25;;;-4.60;1.00;;;;;;4969162;28;20027;-79
2023/12/04 03:07:04;;;;;;;75.10;43.25;;;-4.60;1.00;;;;;;4969837;28;20126;-76
2023/12/04 03:09:31;;;;;;;89.28;46.42;;;-4.60;1.00;;;;;;4969368;28;20050;-76
2023/12/04 03:11:58;;;;;;;67.32;38.70;;;-4.50;1.00;;;;;;4970143;28;20042;-75
2023/12/04 03:14:27;;;;;;;63.60;38.22;;;-4.50;1.00;;;;;;4969269;28;20038;-77
2023/12/04 03:16:55;;;;;;;65.68;37.72;;;-4.50;1.00;;;;;;4969517;28;20053;-76
2023/12/04 03:19:23;;;;;;;62.90;37.83;;;-4.50;1.00;;;;;;4969643;28;20101;-77
2023/12/04 03:21:50;;;;;;;61.25;35.33;;;-4.50;99.90;;;;;;4969924;28;20043;-78
2023/12/04 03:24:17;;;;;;;55.70;33.17;;;-4.50;99.90;;;;;;4970578;28;20093;-78
2023/12/04 03:26:45;;;;;;;76.47;37.97;;;-4.50;99.90;;;;;;4975786;28;20133;-77
2023/12/04 03:29:12;;;;;;;79.97;43.55;;;-4.50;99.90;;;;;;4983776;28;20055;-77
2023/12/04 03:31:41;;;;;;;68.97;38.97;;;-4.60;99.90;;;;;;4980565;28;20051;-78
2023/12/04 03:34:09;;;;;;;66.57;36.20;;;-4.50;99.90;;;;;;4972717;28;20499;-75
2023/12/04 03:36:36;;;;;;;59.83;34.75;;;-4.60;99.90;;;;;;4972701;28;20133;-79
2023/12/04 03:39:04;;;;;;;75.10;40.30;;;-4.50;99.90;;;;;;4972602;28;20074;-75
2023/12/04 03:41:31;;;;;;;61.40;36.92;;;-4.50;1.00;;;;;;4972834;28;20138;-77
2023/12/04 03:43:59;;;;;;;72.65;39.58;;;-4.60;1.00;;;;;;4972652;28;20125;-76
2023/12/04 03:46:27;;;;;;;65.60;35.92;;;-4.60;8.60;;;;;;4973227;28;20038;-78
2023/12/04 03:48:56;;;;;;;69.57;38.60;;;-4.70;99.90;;;;;;4971840;28;20043;-77
2023/12/04 03:51:23;;;;;;;69.10;40.17;;;-4.70;99.90;;;;;;4972681;28;20122;-76
2023/12/04 03:53:51;;;;;;;82.85;43.75;;;-4.80;99.90;;;;;;4971657;28;20125;-78
2023/12/04 03:56:19;;;;;;;64.82;37.22;;;-4.80;99.90;;;;;;4972393;28;20042;-78
2023/12/04 03:58:46;;;;;;;62.75;36.60;;;-4.80;99.90;;;;;;4971387;28;20039;-79
2023/12/04 04:01:14;;;;;;;69.07;39.85;;;-4.80;99.90;;;;;;4972041;28;20058;-76
2023/12/04 04:03:42;;;;;;;74.07;42.50;;;-4.80;99.90;;;;;;4971690;28;20511;-78
2023/12/04 04:06:11;;;;;;;81.28;46.97;;;-4.80;99.90;;;;;;4972355;28;20046;-78
2023/12/04 04:08:39;;;;;;;82.05;47.45;;;-4.70;99.90;;;;;;4972142;28;20134;-77
2023/12/04 04:11:07;;;;;;;79.50;45.58;;;-4.70;99.90;;;;;;4971535;28;20161;-75
2023/12/04 04:13:34;;;;;;;96.32;54.47;;;-4.80;40.00;;;;;;4971387;28;20062;-77
2023/12/04 04:16:02;;;;;;;86.07;49.22;;;-4.70;77.30;;;;;;4971404;28;20071;-75
2023/12/04 04:18:30;;;;;;;84.65;49.63;;;-4.80;1.00;;;;;;4972306;28;20047;-78
2023/12/04 04:20:57;;;;;;;86.22;50.00;;;-4.80;61.20;;;;;;4971558;28;20130;-78
2023/12/04 04:23:26;;;;;;;85.40;47.92;;;-4.80;1.00;;;;;;4970091;28;20069;-75
2023/12/04 04:25:54;;;;;;;95.20;54.15;;;-4.80;1.00;;;;;;4971652;28;20093;-78
2023/12/04 04:28:21;;;;;;;88.68;49.92;;;-4.90;1.00;;;;;;4971819;28;20054;-78
2023/12/04 04:30:48;;;;;;;79.00;46.00;;;-4.90;1.00;;;;;;4971653;28;20055;-76
2023/12/04 04:33:17;;;;;;;75.85;44.83;;;-4.90;99.90;;;;;;4971387;28;20078;-77
2023/12/04 04:35:45;;;;;;;119.05;66.45;;;-4.90;99.90;;;;;;4973715;28;20038;-78
2023/12/04 04:38:12;;;;;;;180.32;87.55;;;-4.90;1.00;;;;;;4971879;28;20046;-78
2023/12/04 04:40:43;;;;;;;158.40;77.78;;;-5.00;1.00;;;;;;4972276;28;20073;-78
2023/12/04 04:43:11;;;;;;;105.20;59.33;;;-5.00;99.90;;;;;;4970657;28;20569;-78
2023/12/04 04:45:39;;;;;;;95.55;53.13;;;-5.00;32.00;;;;;;4971372;28;20049;-75
2023/12/04 04:48:06;;;;;;;104.82;57.00;;;-5.00;1.00;;;;;;4970763;28;20047;-77
2023/12/04 04:50:34;;;;;;;103.55;56.00;;;-5.00;99.90;;;;;;4972037;28;20047;-78
2023/12/04 04:53:03;;;;;;;99.25;53.85;;;-4.90;99.90;;;;;;4953934;28;20399;-79
2023/12/04 04:55:31;;;;;;;90.60;51.50;;;-4.90;77.00;;;;;;4970991;28;20046;-76
2023/12/04 04:58:00;;;;;;;88.03;50.67;;;-5.00;1.00;;;;;;4971714;28;20042;-77
2023/12/04 05:00:28;;;;;;;90.28;52.83;;;-4.90;51.40;;;;;;4971193;28;20043;-78
2023/12/04 05:02:55;;;;;;;87.25;52.10;;;-5.00;1.00;;;;;;4970898;28;20097;-77
2023/12/04 05:05:23;;;;;;;92.45;54.20;;;-5.00;1.00;;;;;;4953633;28;20089;-77
2023/12/04 05:07:50;;;;;;;92.00;51.80;;;-5.00;1.00;;;;;;4971476;28;20056;-76
2023/12/04 05:10:18;;;;;;;84.03;47.78;;;-5.00;1.00;;;;;;4953654;28;20130;-77
2023/12/04 05:12:46;;;;;;;69.13;39.45;;;-5.00;1.00;;;;;;4971067;28;20133;-78
2023/12/04 05:15:16;;;;;;;70.25;39.85;;;-5.00;1.00;;;;;;4970706;28;20047;-75
2023/12/04 05:17:43;;;;;;;73.82;43.50;;;-4.90;1.00;;;;;;4971186;28;20049;-77
2023/12/04 05:20:11;;;;;;;77.53;45.97;;;-5.00;1.00;;;;;;4970483;28;20055;-76
2023/12/04 05:22:39;;;;;;;74.80;43.10;;;-5.00;1.00;;;;;;4970888;28;20114;-79
2023/12/04 05:25:07;;;;;;;72.53;44.22;;;-5.00;1.00;;;;;;4970509;28;20070;-77
2023/12/04 05:27:35;;;;;;;81.65;51.47;;;-5.10;1.00;;;;;;4970174;28;20043;-76
2023/12/04 05:30:03;;;;;;;78.70;45.58;;;-5.20;1.00;;;;;;4970701;28;20062;-77
2023/12/04 05:32:32;;;;;;;71.63;44.65;;;-5.20;1.00;;;;;;4953216;28;20049;-76
2023/12/04 05:35:00;;;;;;;82.88;47.05;;;-5.20;20.20;;;;;;4953121;28;20474;-76
2023/12/04 05:37:27;;;;;;;82.40;46.20;;;-5.10;95.00;;;;;;4970453;28;20051;-78
2023/12/04 05:39:55;;;;;;;80.13;46.15;;;-5.10;38.00;;;;;;4953473;28;20077;-77
2023/12/04 05:42:23;;;;;;;78.22;46.17;;;-5.10;1.00;;;;;;4952666;28;20085;-76
2023/12/04 05:44:53;;;;;;;84.78;48.65;;;-5.10;1.00;;;;;;4970474;28;20134;-77
2023/12/04 05:47:20;;;;;;;85.57;51.80;;;-5.10;1.00;;;;;;4970734;28;20467;-78
2023/12/04 05:49:49;;;;;;;93.45;53.17;;;-5.20;1.00;;;;;;4970136;28;20051;-78
2023/12/04 05:52:17;;;;;;;93.82;56.97;;;-5.20;1.00;;;;;;4970910;28;20077;-78
2023/12/04 05:54:44;;;;;;;105.35;59.08;;;-5.30;1.00;;;;;;4970690;28;20042;-74
2023/12/04 05:57:12;;;;;;;100.50;57.33;;;-5.30;1.00;;;;;;4974554;28;20138;-74
2023/12/04 05:59:39;;;;;;;104.18;56.90;;;-5.30;1.00;;;;;;4975575;28;20054;-79
2023/12/04 06:02:07;;;;;;;99.60;55.83;;;-5.30;1.00;;;;;;4954663;28;20053;-78
2023/12/04 06:04:34;;;;;;;100.00;54.30;;;-5.20;1.00;;;;;;4969231;28;20467;-78
2023/12/04 06:07:03;;;;;;;105.63;58.15;;;-5.30;1.00;;;;;;4970774;28;20035;-78
2023/12/04 06:09:31;;;;;;;105.00;59.75;;;-5.30;1.00;;;;;;4969759;28;20134;-78
2023/12/04 06:12:04;;;;;;;104.78;60.35;;;-5.20;1.00;;;;;;4970559;28;20479;-78
2023/12/04 06:14:31;;;;;;;113.30;66.47;;;-5.20;1.00;;;;;;4970486;28;20050;-76
2023/12/04 06:16:59;;;;;;;122.82;67.20;;;-5.10;1.00;;;;;;4970702;28;20039;-77
2023/12/04 06:19:26;;;;;;;115.60;65.57;;;-5.20;1.00;;;;;;4971995;28;20128;-75
2023/12/04 06:21:55;;;;;;;134.35;78.38;;;-5.10;1.00;;;;;;4969790;28;20125;-78
2023/12/04 06:24:24;;;;;;;155.20;86.32;;;-5.10;1.00;;;;;;4970382;28;20513;-78
2023/12/04 06:26:52;;;;;;;147.05;84.55;;;-5.10;1.00;;;;;;4970603;28;20082;-78
2023/12/04 06:29:20;;;;;;;144.60;80.80;;;-5.10;1.00;;;;;;4970967;28;20090;-79
2023/12/04 06:31:49;;;;;;;133.50;76.95;;;-5.10;1.00;;;;;;4970639;28;20133;-76
2023/12/04 06:34:16;;;;;;;137.77;82.65;;;-5.00;1.00;;;;;;4971111;28;20288;-78
2023/12/04 06:36:44;;;;;;;137.70;77.22;;;-4.90;1.00;;;;;;4972225;28;20054;-78
2023/12/04 06:39:13;;;;;;;138.07;80.25;;;-4.90;99.90;;;;;;4972215;28;20078;-78
2023/12/04 06:41:44;;;;;;;133.52;75.85;;;-4.90;99.90;;;;;;4952624;28;20046;-77
2023/12/04 06:44:12;;;;;;;124.78;74.35;;;-4.90;99.90;;;;;;4973946;28;20046;-78
2023/12/04 06:46:42;;;;;;;128.70;72.45;;;-4.90;99.90;;;;;;4970388;28;20097;-76
2023/12/04 06:49:12;;;;;;;125.15;74.63;;;-4.80;99.90;;;;;;4969741;28;20066;-76
2023/12/04 06:51:40;;;;;;;147.02;85.05;;;-4.70;99.90;;;;;;4970646;28;20502;-77
2023/12/04 06:54:08;;;;;;;145.35;83.35;;;-4.60;99.90;;;;;;4968756;28;20154;-78
2023/12/04 06:56:36;;;;;;;144.93;82.22;;;-4.60;99.90;;;;;;4971126;28;20130;-78
2023/12/04 06:59:05;;;;;;;151.43;87.60;;;-4.60;99.90;;;;;;4970744;28;20053;-78
2023/12/04 07:01:32;;;;;;;150.27;86.68;;;-4.60;99.90;;;;;;4955748;28;20086;-78
2023/12/04 07:04:00;;;;;;;169.52;91.07;;;-4.50;99.90;;;;;;4974241;28;20475;-77
2023/12/04 07:06:27;;;;;;;159.95;94.90;;;-4.40;1.00;;;;;;4957169;28;20578;-76
2023/12/04 07:08:55;;;;;;;182.48;101.95;;;-4.30;3.10;;;;;;4973003;28;20074;-76
2023/12/04 07:11:22;;;;;;;168.20;97.30;;;-4.20;1.00;;;;;;4973740;28;20039;-77
2023/12/04 07:13:50;;;;;;;169.63;98.63;;;-4.20;1.00;;;;;;4973766;28;20046;-77
2023/12/04 07:16:19;;;;;;;189.38;109.68;;;-4.10;1.00;;;;;;4955371;28;20050;-77
2023/12/04 07:18:47;;;;;;;189.32;104.90;;;-4.00;1.00;;;;;;4972899;28;20043;-77
2023/12/04 07:21:14;;;;;;;172.55;98.55;;;-3.90;1.00;;;;;;4956233;28;20113;-77
2023/12/04 07:23:42;;;;;;;177.35;100.13;;;-3.70;1.00;;;;;;4973019;28;20043;-79
2023/12/04 07:26:09;;;;;;;166.38;97.88;;;-3.60;1.00;;;;;;4956477;28;20176;-77
2023/12/04 07:28:37;;;;;;;160.40;95.25;;;-3.40;1.00;;;;;;4973400;28;20035;-77
2023/12/04 07:31:05;;;;;;;158.75;91.72;;;-3.20;99.90;;;;;;4973717;28;20510;-76
2023/12/04 07:33:34;;;;;;;138.52;83.57;;;-3.00;99.90;;;;;;4955980;28;20047;-77
2023/12/04 07:36:02;;;;;;;130.63;75.28;;;-2.90;99.90;;;;;;4973022;28;20070;-78
2023/12/04 07:38:30;;;;;;;158.88;90.60;;;-2.80;99.90;;;;;;4972991;28;20061;-77
2023/12/04 07:40:57;;;;;;;149.77;86.63;;;-2.50;99.90;;;;;;4956493;28;20098;-78
2023/12/04 07:43:25;;;;;;;152.40;90.80;;;-2.40;1.00;;;;;;4973388;28;20129;-78
2023/12/04 07:45:53;;;;;;;160.07;95.65;;;-2.20;1.00;;;;;;4977545;28;20055;-76
2023/12/04 07:48:21;;;;;;;136.57;83.03;;;-2.10;1.00;;;;;;4976430;28;20070;-78
2023/12/04 07:50:50;;;;;;;157.85;89.90;;;-2.00;1.00;;;;;;4975137;28;20471;-78
2023/12/04 07:53:18;;;;;;;147.55;83.68;;;-1.90;1.00;;;;;;4972983;28;20073;-76
2023/12/04 07:55:46;;;;;;;150.18;86.10;;;-1.80;1.00;;;;;;4955570;28;20062;-78
2023/12/04 07:58:14;;;;;;;149.38;86.25;;;-1.60;1.00;;;;;;4973029;28;20094;-77
2023/12/04 08:00:41;;;;;;;149.85;86.28;;;-1.60;1.00;;;;;;4973042;28;20101;-78
2023/12/04 08:03:09;;;;;;;132.45;75.95;;;-1.60;1.00;;;;;;4972150;28;20106;-78
2023/12/04 08:05:36;;;;;;;143.32;82.28;;;-1.60;1.00;;;;;;4973225;28;20101;-76
2023/12/04 08:08:06;;;;;;;130.43;79.85;;;-1.50;1.00;;;;;;4972528;28;20076;-77
2023/12/04 08:10:33;;;;;;;132.10;78.47;;;-1.50;1.00;;;;;;4973426;28;20043;-78
2023/12/04 08:13:01;;;;;;;135.90;80.88;;;-1.40;1.00;;;;;;4973638;28;20046;-78
2023/12/04 08:15:28;;;;;;;131.65;80.43;;;-1.20;1.00;;;;;;4973317;28;20114;-77
2023/12/04 08:17:57;;;;;;;153.00;93.38;;;-1.10;1.00;;;;;;4973051;28;20611;-78
2023/12/04 08:20:25;;;;;;;160.48;98.15;;;-0.90;1.00;;;;;;4955937;28;20047;-79
2023/12/04 08:22:54;;;;;;;148.32;88.78;;;-0.80;1.00;;;;;;4972765;28;20068;-77
2023/12/04 08:25:23;;;;;;;134.50;80.35;;;-0.70;1.00;;;;;;4973217;28;20337;-76
2023/12/04 08:27:51;;;;;;;125.88;76.80;;;-0.50;1.00;;;;;;4972617;28;20052;-78
2023/12/04 08:30:19;;;;;;;137.57;80.65;;;-0.40;1.00;;;;;;4972898;28;20138;-77
2023/12/04 08:32:47;;;;;;;139.88;83.25;;;-0.30;1.00;;;;;;4972678;28;20054;-76
2023/12/04 08:35:14;;;;;;;165.18;94.53;;;-0.20;1.00;;;;;;4972274;28;20054;-78
2023/12/04 08:37:42;;;;;;;162.07;94.03;;;0.00;1.00;;;;;;4974161;28;20049;-79
2023/12/04 08:40:11;;;;;;;170.30;102.20;;;0.10;1.00;;;;;;4974925;28;20035;-79
2023/12/04 08:42:40;;;;;;;173.60;105.18;;;0.20;99.90;;;;;;4984759;28;20055;-78
2023/12/04 08:45:10;;;;;;;186.60;109.13;;;0.30;99.90;;;;;;4985466;28;20070;-79
2023/12/04 08:47:38;;;;;;;201.38;116.40;;;0.50;99.90;;;;;;4985345;28;20039;-79
2023/12/04 08:50:06;;;;;;;200.23;117.90;;;0.60;99.90;;;;;;4979232;28;20654;-78
2023/12/04 08:52:34;;;;;;;212.60;118.72;;;0.60;99.90;;;;;;4980497;28;20487;-77
2023/12/04 08:55:01;;;;;;;232.80;132.60;;;0.80;99.90;;;;;;4979077;28;20043;-78
2023/12/04 08:57:29;;;;;;;217.30;123.97;;;0.80;99.90;;;;;;4980100;28;20062;-78
2023/12/04 08:59:58;;;;;;;216.63;123.28;;;0.90;99.90;;;;;;4961683;28;20077;-78
2023/12/04 09:02:26;;;;;;;222.05;125.50;;;0.90;99.90;;;;;;4978571;28;20062;-77
2023/12/04 09:04:53;;;;;;;205.52;119.18;;;1.00;99.90;;;;;;4972361;28;20058;-78
2023/12/04 09:07:21;;;;;;;171.43;101.13;;;1.20;99.90;;;;;;4974284;28;20495;-77
2023/12/04 09:09:48;;;;;;;141.93;82.55;;;1.30;99.90;;;;;;4973000;28;20050;-78
2023/12/04 09:12:16;;;;;;;153.52;91.22;;;1.40;99.90;;;;;;4972355;28;20129;-76
2023/12/04 09:14:45;;;;;;;153.77;90.72;;;1.50;99.90;;;;;;4971174;28;20050;-76
2023/12/04 09:17:14;;;;;;;130.52;74.68;;;1.50;99.90;;;;;;4972282;28;20052;-77
2023/12/04 09:19:41;;;;;;;143.45;80.47;;;1.70;99.90;;;;;;4972746;28;20050;-78
2023/12/04 09:22:09;;;;;;;65.15;38.92;;;1.80;92.70;;;;;;4971594;28;20074;-78
2023/12/04 09:24:36;;;;;;;76.95;44.75;;;2.00;22.70;;;;;;4974525;28;20054;-76
2023/12/04 09:27:06;;;;;;;55.28;31.15;;;2.20;1.00;;;;;;4974664;28;20042;-76
2023/12/04 09:29:33;;;;;;;52.80;29.55;;;2.30;1.00;;;;;;4972630;28;20063;-78
2023/12/04 09:32:01;;;;;;;22.15;11.98;;;2.50;1.00;;;;;;4973484;28;20066;-77
2023/12/04 09:34:30;;;;;;;21.95;11.68;;;2.60;1.00;;;;;;4974868;28;20070;-75
2023/12/04 09:36:57;;;;;;;16.27;9.40;;;2.70;1.00;;;;;;4975414;28;20558;-78
2023/12/04 09:39:26;;;;;;;14.02;8.73;;;2.80;1.00;;;;;;4972704;28;20078;-78
2023/12/04 09:41:54;;;;;;;12.40;7.95;;;2.90;1.00;;;;;;4973434;28;20054;-79
2023/12/04 09:44:23;;;;;;;31.27;15.25;;;2.90;1.00;;;;;;4972388;28;20043;-77
2023/12/04 09:46:51;;;;;;;13.52;7.45;;;3.00;1.00;;;;;;4972016;28;20047;-77
2023/12/04 09:49:19;;;;;;;18.20;9.00;;;3.20;1.00;;;;;;4971061;28;20042;-76
2023/12/04 09:51:48;;;;;;;13.25;6.75;;;3.30;1.00;;;;;;4971705;28;20125;-76
2023/12/04 09:54:19;;;;;;;23.60;7.90;;;3.40;1.00;;;;;;4971465;28;20434;-77
2023/12/04 09:56:47;;;;;;;13.43;7.70;;;3.50;1.00;;;;;;4972877;28;20047;-79
2023/12/04 09:59:16;;;;;;;16.48;9.25;;;3.50;1.00;;;;;;4971292;28;20081;-78
2023/12/04 10:01:47;;;;;;;19.02;12.77;;;3.50;1.00;;;;;;4971435;28;20038;-77
2023/12/04 10:04:14;;;;;;;16.23;8.25;;;3.50;1.00;;;;;;4969302;28;20094;-77
2023/12/04 10:06:43;;;;;;;14.25;8.35;;;3.50;1.00;;;;;;4971222;28;20671;-78
2023/12/04 10:09:13;;;;;;;19.75;8.63;;;3.70;1.00;;;;;;4969893;28;20129;-76
2023/12/04 10:11:42;;;;;;;16.48;8.10;;;3.80;1.00;;;;;;4970455;28;20039;-76
2023/12/04 10:14:16;;;;;;;18.10;7.30;;;3.90;1.00;;;;;;4970381;28;20039;-76
2023/12/04 10:16:44;;;;;;;11.75;7.20;;;3.90;1.00;;;;;;4969608;28;20077;-77
2023/12/04 10:19:21;;;;;;;13.13;7.35;;;3.70;1.00;;;;;;4970740;28;20121;-77
2023/12/04 10:21:50;;;;;;;12.02;7.13;;;3.80;1.00;;;;;;4971780;28;20600;-76
2023/12/04 10:24:35;;;;;;;12.45;7.20;;;3.90;1.00;;;;;;4971927;28;20367;-78
2023/12/04 10:27:04;;;;;;;11.07;6.60;;;3.90;1.00;;;;;;4973679;28;20427;-78
2023/12/04 10:29:43;;;;;;;13.05;7.53;;;3.70;1.00;;;;;;4973036;28;20055;-77
2023/12/04 10:32:11;;;;;;;12.75;6.80;;;3.80;1.00;;;;;;4971128;28;20046;-78
2023/12/04 10:34:39;;;;;;;12.45;7.40;;;3.90;1.00;;;;;;4971423;28;20062;-78
2023/12/04 10:37:07;;;;;;;10.15;6.53;;;3.80;1.00;;;;;;4974373;28;20069;-78
2023/12/04 10:39:48;;;;;;;9.43;5.47;;;3.80;1.00;;;;;;4974177;28;20074;-77
2023/12/04 10:42:25;;;;;;;11.93;5.80;;;3.80;1.00;;;;;;4975623;28;20130;-76
2023/12/04 10:44:55;;;;;;;13.48;7.53;;;3.80;1.00;;;;;;4973730;28;20047;-75
2023/12/04 10:47:23;;;;;;;11.23;6.25;;;4.00;1.00;;;;;;4974768;28;20126;-78
2023/12/04 10:49:52;;;;;;;12.20;6.72;;;4.10;1.00;;;;;;4975068;28;20195;-78
2023/12/04 10:52:20;;;;;;;9.60;5.32;;;4.20;1.00;;;;;;4974416;28;20510;-78
2023/12/04 10:54:50;;;;;;;9.23;5.70;;;4.00;1.00;;;;;;4973608;28;20053;-75
2023/12/04 10:57:24;;;;;;;13.25;5.80;;;4.00;1.00;;;;;;4973988;28;20138;-75
2023/12/04 10:59:57;;;;;;;11.55;6.25;;;4.10;1.00;;;;;;4974045;28;20213;-77
2023/12/04 11:02:27;;;;;;;8.30;5.18;;;4.10;1.00;;;;;;4974306;28;20439;-77
2023/12/04 11:05:07;;;;;;;9.30;4.90;;;4.10;1.00;;;;;;4973228;28;20041;-78
2023/12/04 11:07:38;;;;;;;7.97;5.10;;;4.10;1.00;;;;;;4973399;28;20061;-77
2023/12/04 11:10:10;;;;;;;10.68;5.68;;;4.00;1.00;;;;;;4974305;28;20081;-78
2023/12/04 11:12:43;;;;;;;8.80;5.05;;;3.90;1.00;;;;;;4973919;28;20046;-77
2023/12/04 11:15:15;;;;;;;10.38;6.05;;;3.90;1.00;;;;;;4973499;28;20066;-77
2023/12/04 11:17:49;;;;;;;11.20;7.25;;;4.00;1.00;;;;;;4974063;28;20038;-76
2023/12/04 11:20:20;;;;;;;13.18;7.20;;;4.10;1.00;;;;;;4974983;28;20034;-78
2023/12/04 11:22:50;;;;;;;11.95;7.82;;;4.30;1.00;;;;;;4973566;28;20047;-76
2023/12/04 11:25:19;;;;;;;10.40;6.32;;;4.40;1.00;;;;;;4974503;28;20045;-77
2023/12/04 11:27:47;;;;;;;12.70;5.40;;;4.60;1.00;;;;;;4974669;28;20076;-77
2023/12/04 11:30:15;;;;;;;10.13;5.82;;;4.70;1.00;;;;;;4958170;28;20059;-77
2023/12/04 11:32:45;;;;;;;10.00;6.43;;;4.80;1.00;;;;;;4975909;28;20038;-77
2023/12/04 11:35:17;;;;;;;11.85;7.43;;;4.90;1.00;;;;;;4973864;28;20094;-78
2023/12/04 11:37:45;;;;;;;13.55;7.30;;;5.00;1.00;;;;;;4973663;28;20039;-76
2023/12/04 11:40:15;;;;;;;13.82;7.88;;;5.10;1.00;;;;;;4957531;28;20506;-78
2023/12/04 11:42:45;;;;;;;10.13;6.50;;;5.10;1.00;;;;;;4974136;28;20043;-76
2023/12/04 11:45:20;;;;;;;8.40;4.65;;;5.10;1.00;;;;;;4956483;28;20533;-77
2023/12/04 11:47:52;;;;;;;8.30;4.22;;;5.10;1.00;;;;;;4973276;28;20053;-79
2023/12/04 11:50:20;;;;;;;8.77;4.88;;;5.10;1.00;;;;;;4973328;28;20057;-77
2023/12/04 11:52:49;;;;;;;10.85;6.60;;;4.80;1.00;;;;;;4974406;28;20125;-76
2023/12/04 11:55:23;;;;;;;10.60;6.07;;;4.90;1.00;;;;;;4976646;28;20069;-79
2023/12/04 11:57:53;;;;;;;12.43;6.30;;;5.00;1.00;;;;;;4977915;28;20046;-77
2023/12/04 12:00:22;;;;;;;9.38;5.38;;;5.10;1.00;;;;;;4978835;28;20577;-76
2023/12/04 12:03:04;;;;;;;8.50;4.97;;;5.10;1.00;;;;;;4977748;28;20046;-78
2023/12/04 12:05:33;;;;;;;10.07;5.93;;;5.00;1.00;;;;;;4974001;28;20383;-77
2023/12/04 12:08:02;;;;;;;11.75;6.43;;;5.00;1.00;;;;;;4973931;28;20039;-76
2023/12/04 12:10:30;;;;;;;9.50;5.03;;;5.10;1.00;;;;;;4974243;28;20093;-79
2023/12/04 12:12:59;;;;;;;9.60;5.20;;;5.20;1.00;;;;;;4976510;28;20078;-76
2023/12/04 12:15:27;;;;;;;9.10;5.68;;;5.30;1.00;;;;;;4959278;28;20443;-77
2023/12/04 12:17:55;;;;;;;12.60;8.05;;;5.40;1.00;;;;;;4976619;28;20101;-78
2023/12/04 12:20:22;;;;;;;9.82;5.28;;;5.30;1.00;;;;;;4976913;28;20101;-78
2023/12/04 12:22:50;;;;;;;11.40;5.70;;;5.40;1.00;;;;;;4968656;28;20050;-78
2023/12/04 12:25:19;;;;;;;11.30;5.70;;;5.50;1.00;;;;;;4993071;28;20051;-77
2023/12/04 12:27:46;;;;;;;9.23;5.30;;;5.40;1.00;;;;;;4991320;28;20130;-77
2023/12/04 12:30:15;;;;;;;9.98;5.57;;;5.50;1.00;;;;;;4993221;28;20086;-75
2023/12/04 12:32:43;;;;;;;9.88;5.25;;;5.40;1.00;;;;;;4989436;28;20579;-75
2023/12/04 12:35:11;;;;;;;11.00;5.70;;;5.50;1.00;;;;;;4987266;28;20046;-77
2023/12/04 12:37:40;;;;;;;10.23;5.95;;;5.40;1.00;;;;;;4981314;28;20043;-76
2023/12/04 12:40:10;;;;;;;12.52;6.50;;;5.30;1.00;;;;;;4975574;28;20043;-77
2023/12/04 12:42:41;;;;;;;10.10;5.95;;;5.30;1.00;;;;;;4982597;28;20053;-77